Terminal Aerodrome Forecast
Issued by NWS Sioux Falls, SD

Home | Current Version | Previous Version | Graphics & Text | Print | Product List | Glossary Off
Versions: 1 2 3 4 5 6 7 8 9 10 11 12 13 14 15 16 17 18 19 20

000
FTUS43 KFSD 012220 AAB
TAFFSD
TAF AMD
KFSD 012220Z 0122/0218 12008KT P6SM SCT025 OVC035
     FM020400 11008KT P6SM BKN025
      TEMPO 0209/0211 -SHRA
     FM021500 10008KT P6SM OVC035=

USA.gov is the U.S. government's official web portal to all federal, state and local government web resources and services.